Terminal Aerodrome Forecast
Issued by NWS Wichita, KS

Home | Current Version | Previous Version | Text Only | Print | Product List | Glossary On
Versions: 1 2 3 4 5 6 7 8 9 10 11 12 13 14 15 16 17
000
FTUS43 KICT 311720
TAFICT
TAF
KICT 311720Z 3118/0118 01013G21KT P6SM SKC
     FM312200 02009KT P6SM SKC
     FM010600 11004KT P6SM SKC
     FM011200 14008KT P6SM SCT250
     FM011700 16017G23KT P6SM SCT250=

USA.gov is the U.S. government's official web portal to all federal, state and local government web resources and services.